sensor_id;sensor_type;location;lat;lon;timestamp;temperature;humidity
52295;DHT22;38243;53.212;6.574;2023-04-03T00:01:16;15.70;65.50
52295;DHT22;38243;53.212;6.574;2023-04-03T00:03:42;15.70;65.50
52295;DHT22;38243;53.212;6.574;2023-04-03T00:06:09;15.70;65.60
52295;DHT22;38243;53.212;6.574;2023-04-03T00:08:37;15.70;65.70
52295;DHT22;38243;53.212;6.574;2023-04-03T00:11:03;15.70;65.80
52295;DHT22;38243;53.212;6.574;2023-04-03T00:13:29;15.70;65.70
52295;DHT22;38243;53.212;6.574;2023-04-03T00:15:55;15.70;65.70
52295;DHT22;38243;53.212;6.574;2023-04-03T00:18:21;15.70;65.70
52295;DHT22;38243;53.212;6.574;2023-04-03T00:20:47;15.60;65.20
52295;DHT22;38243;53.212;6.574;2023-04-03T00:23:13;15.60;65.10
52295;DHT22;38243;53.212;6.574;2023-04-03T00:25:38;15.50;64.70
52295;DHT22;38243;53.212;6.574;2023-04-03T00:28:05;15.50;64.90
52295;DHT22;38243;53.212;6.574;2023-04-03T00:30:31;15.50;64.70
52295;DHT22;38243;53.212;6.574;2023-04-03T00:32:57;15.40;64.60
52295;DHT22;38243;53.212;6.574;2023-04-03T00:35:23;15.40;64.80
52295;DHT22;38243;53.212;6.574;2023-04-03T00:37:53;15.40;65.20
52295;DHT22;38243;53.212;6.574;2023-04-03T00:40:22;15.30;64.80
52295;DHT22;38243;53.212;6.574;2023-04-03T00:42:49;15.30;65.00
52295;DHT22;38243;53.212;6.574;2023-04-03T00:45:38;15.20;64.90
52295;DHT22;38243;53.212;6.574;2023-04-03T00:48:06;15.20;64.90
52295;DHT22;38243;53.212;6.574;2023-04-03T00:50:37;15.20;65.20
52295;DHT22;38243;53.212;6.574;2023-04-03T00:53:05;15.20;65.00
52295;DHT22;38243;53.212;6.574;2023-04-03T00:55:33;15.20;64.70
52295;DHT22;38243;53.212;6.574;2023-04-03T00:58:00;15.20;65.00
52295;DHT22;38243;53.212;6.574;2023-04-03T01:00:27;15.10;64.80
52295;DHT22;38243;53.212;6.574;2023-04-03T01:02:53;15.10;64.70
52295;DHT22;38243;53.212;6.574;2023-04-03T01:05:20;15.10;64.90
52295;DHT22;38243;53.212;6.574;2023-04-03T01:07:47;15.10;65.00
52295;DHT22;38243;53.212;6.574;2023-04-03T01:10:16;15.10;64.80
52295;DHT22;38243;53.212;6.574;2023-04-03T01:12:45;15.00;65.30
52295;DHT22;38243;53.212;6.574;2023-04-03T01:15:15;15.00;65.30
52295;DHT22;38243;53.212;6.574;2023-04-03T01:17:50;15.00;65.20
52295;DHT22;38243;53.212;6.574;2023-04-03T01:28:11;14.90;65.40
52295;DHT22;38243;53.212;6.574;2023-04-03T01:30:58;14.90;65.40
52295;DHT22;38243;53.212;6.574;2023-04-03T01:33:25;14.90;65.60
52295;DHT22;38243;53.212;6.574;2023-04-03T01:35:50;14.90;65.40
52295;DHT22;38243;53.212;6.574;2023-04-03T01:38:16;14.90;65.60
52295;DHT22;38243;53.212;6.574;2023-04-03T01:40:42;14.90;65.30
52295;DHT22;38243;53.212;6.574;2023-04-03T01:43:08;14.90;65.20
52295;DHT22;38243;53.212;6.574;2023-04-03T01:45:34;14.80;65.10
52295;DHT22;38243;53.212;6.574;2023-04-03T01:47:59;14.80;65.10
52295;DHT22;38243;53.212;6.574;2023-04-03T01:50:25;14.80;65.20
52295;DHT22;38243;53.212;6.574;2023-04-03T01:52:51;14.80;65.20
52295;DHT22;38243;53.212;6.574;2023-04-03T01:55:17;14.80;65.30
52295;DHT22;38243;53.212;6.574;2023-04-03T01:57:42;14.80;65.60
52295;DHT22;38243;53.212;6.574;2023-04-03T02:00:09;14.80;65.20
52295;DHT22;38243;53.212;6.574;2023-04-03T02:02:35;14.70;65.30
52295;DHT22;38243;53.212;6.574;2023-04-03T02:05:00;14.70;65.30
52295;DHT22;38243;53.212;6.574;2023-04-03T02:07:26;14.70;65.10
52295;DHT22;38243;53.212;6.574;2023-04-03T02:09:52;14.70;65.60
52295;DHT22;38243;53.212;6.574;2023-04-03T02:12:18;14.70;65.40
52295;DHT22;38243;53.212;6.574;2023-04-03T02:14:44;14.70;65.30
52295;DHT22;38243;53.212;6.574;2023-04-03T02:17:09;14.70;65.90
52295;DHT22;38243;53.212;6.574;2023-04-03T02:19:35;14.70;65.60
52295;DHT22;38243;53.212;6.574;2023-04-03T02:22:02;14.70;65.50
52295;DHT22;38243;53.212;6.574;2023-04-03T02:24:28;14.70;65.70
52295;DHT22;38243;53.212;6.574;2023-04-03T02:26:54;14.70;65.80
52295;DHT22;38243;53.212;6.574;2023-04-03T02:29:20;14.70;65.80
52295;DHT22;38243;53.212;6.574;2023-04-03T02:31:45;14.60;65.90
52295;DHT22;38243;53.212;6.574;2023-04-03T02:34:11;14.60;65.80
52295;DHT22;38243;53.212;6.574;2023-04-03T02:36:37;14.60;66.00
52295;DHT22;38243;53.212;6.574;2023-04-03T02:39:03;14.60;65.70
52295;DHT22;38243;53.212;6.574;2023-04-03T02:41:29;14.60;65.90
52295;DHT22;38243;53.212;6.574;2023-04-03T02:44:01;14.60;66.00
52295;DHT22;38243;53.212;6.574;2023-04-03T02:46:27;14.60;66.00
52295;DHT22;38243;53.212;6.574;2023-04-03T02:48:53;14.60;66.20
52295;DHT22;38243;53.212;6.574;2023-04-03T02:51:19;14.60;66.20
52295;DHT22;38243;53.212;6.574;2023-04-03T02:53:45;14.60;66.30
52295;DHT22;38243;53.212;6.574;2023-04-03T02:56:10;14.50;66.50
52295;DHT22;38243;53.212;6.574;2023-04-03T02:58:36;14.50;66.40
52295;DHT22;38243;53.212;6.574;2023-04-03T03:01:02;14.50;66.50
52295;DHT22;38243;53.212;6.574;2023-04-03T03:03:28;14.50;66.10
52295;DHT22;38243;53.212;6.574;2023-04-03T03:06:09;14.50;66.40
52295;DHT22;38243;53.212;6.574;2023-04-03T03:08:36;14.50;66.50
52295;DHT22;38243;53.212;6.574;2023-04-03T03:11:02;14.50;66.60
52295;DHT22;38243;53.212;6.574;2023-04-03T03:13:28;14.50;66.70
52295;DHT22;38243;53.212;6.574;2023-04-03T03:15:54;14.50;66.70
52295;DHT22;38243;53.212;6.574;2023-04-03T03:18:19;14.40;66.70
52295;DHT22;38243;53.212;6.574;2023-04-03T03:20:45;14.40;66.80
52295;DHT22;38243;53.212;6.574;2023-04-03T03:23:11;14.40;67.40
52295;DHT22;38243;53.212;6.574;2023-04-03T03:25:40;14.40;66.80
52295;DHT22;38243;53.212;6.574;2023-04-03T03:28:07;14.40;66.90
52295;DHT22;38243;53.212;6.574;2023-04-03T03:30:33;14.40;66.90
52295;DHT22;38243;53.212;6.574;2023-04-03T03:32:59;14.40;67.00
52295;DHT22;38243;53.212;6.574;2023-04-03T03:35:25;14.40;67.00
52295;DHT22;38243;53.212;6.574;2023-04-03T03:37:51;14.30;66.90
52295;DHT22;38243;53.212;6.574;2023-04-03T03:40:16;14.40;66.90
52295;DHT22;38243;53.212;6.574;2023-04-03T03:42:42;14.40;66.80
52295;DHT22;38243;53.212;6.574;2023-04-03T03:45:09;14.30;66.80
52295;DHT22;38243;53.212;6.574;2023-04-03T03:47:34;14.30;67.00
52295;DHT22;38243;53.212;6.574;2023-04-03T03:50:01;14.30;67.10
52295;DHT22;38243;53.212;6.574;2023-04-03T03:52:27;14.40;67.10
52295;DHT22;38243;53.212;6.574;2023-04-03T03:54:52;14.30;67.00
52295;DHT22;38243;53.212;6.574;2023-04-03T03:57:18;14.30;67.00
52295;DHT22;38243;53.212;6.574;2023-04-03T03:59:44;14.30;67.10
52295;DHT22;38243;53.212;6.574;2023-04-03T04:02:10;14.30;67.10
52295;DHT22;38243;53.212;6.574;2023-04-03T04:04:37;14.30;67.00
52295;DHT22;38243;53.212;6.574;2023-04-03T04:07:03;14.30;67.20
52295;DHT22;38243;53.212;6.574;2023-04-03T04:09:29;14.70;67.30
52295;DHT22;38243;53.212;6.574;2023-04-03T04:11:55;14.30;67.10
52295;DHT22;38243;53.212;6.574;2023-04-03T04:14:20;14.30;67.10
52295;DHT22;38243;53.212;6.574;2023-04-03T04:16:47;14.30;67.10
52295;DHT22;38243;53.212;6.574;2023-04-03T04:19:13;14.30;67.10
52295;DHT22;38243;53.212;6.574;2023-04-03T04:21:39;14.30;67.10
52295;DHT22;38243;53.212;6.574;2023-04-03T04:24:05;14.30;67.00
52295;DHT22;38243;53.212;6.574;2023-04-03T04:26:31;14.30;67.00
52295;DHT22;38243;53.212;6.574;2023-04-03T04:28:57;14.20;66.80
52295;DHT22;38243;53.212;6.574;2023-04-03T04:31:22;14.20;67.00
52295;DHT22;38243;53.212;6.574;2023-04-03T04:33:48;14.20;66.80
52295;DHT22;38243;53.212;6.574;2023-04-03T04:36:14;14.20;67.00
52295;DHT22;38243;53.212;6.574;2023-04-03T04:38:40;14.20;67.00
52295;DHT22;38243;53.212;6.574;2023-04-03T04:41:06;14.10;67.00
52295;DHT22;38243;53.212;6.574;2023-04-03T04:43:33;14.20;67.10
52295;DHT22;38243;53.212;6.574;2023-04-03T04:46:02;13.40;66.60
52295;DHT22;38243;53.212;6.574;2023-04-03T04:48:28;14.20;67.10
52295;DHT22;38243;53.212;6.574;2023-04-03T04:50:54;14.10;67.10
52295;DHT22;38243;53.212;6.574;2023-04-03T04:53:19;14.10;67.00
52295;DHT22;38243;53.212;6.574;2023-04-03T04:55:45;14.10;67.20
52295;DHT22;38243;53.212;6.574;2023-04-03T04:58:11;14.10;67.40
52295;DHT22;38243;53.212;6.574;2023-04-03T05:00:36;14.10;67.20
52295;DHT22;38243;53.212;6.574;2023-04-03T05:03:02;14.10;67.00
52295;DHT22;38243;53.212;6.574;2023-04-03T05:05:28;14.10;67.10
52295;DHT22;38243;53.212;6.574;2023-04-03T05:07:54;14.10;67.10
52295;DHT22;38243;53.212;6.574;2023-04-03T05:10:19;14.00;67.00
52295;DHT22;38243;53.212;6.574;2023-04-03T05:12:46;14.00;67.00
52295;DHT22;38243;53.212;6.574;2023-04-03T05:15:11;14.00;67.10
52295;DHT22;38243;53.212;6.574;2023-04-03T05:17:37;14.00;67.00
52295;DHT22;38243;53.212;6.574;2023-04-03T05:20:04;14.00;67.20
52295;DHT22;38243;53.212;6.574;2023-04-03T05:22:30;14.00;67.30
52295;DHT22;38243;53.212;6.574;2023-04-03T05:24:56;14.00;67.20
52295;DHT22;38243;53.212;6.574;2023-04-03T05:27:22;14.00;67.40
52295;DHT22;38243;53.212;6.574;2023-04-03T05:29:50;14.00;67.50
52295;DHT22;38243;53.212;6.574;2023-04-03T05:32:16;14.00;67.30
52295;DHT22;38243;53.212;6.574;2023-04-03T05:34:42;14.00;67.30
52295;DHT22;38243;53.212;6.574;2023-04-03T05:37:07;14.00;67.20
52295;DHT22;38243;53.212;6.574;2023-04-03T05:39:33;13.90;67.00
52295;DHT22;38243;53.212;6.574;2023-04-03T05:41:59;13.90;67.00
52295;DHT22;38243;53.212;6.574;2023-04-03T05:44:25;14.00;67.10
52295;DHT22;38243;53.212;6.574;2023-04-03T05:46:51;14.00;67.20
52295;DHT22;38243;53.212;6.574;2023-04-03T05:49:16;14.00;67.10
52295;DHT22;38243;53.212;6.574;2023-04-03T05:51:42;13.90;67.20
52295;DHT22;38243;53.212;6.574;2023-04-03T05:56:39;13.90;67.30
52295;DHT22;38243;53.212;6.574;2023-04-03T05:59:05;13.90;67.20
52295;DHT22;38243;53.212;6.574;2023-04-03T06:01:30;13.90;67.10
52295;DHT22;38243;53.212;6.574;2023-04-03T06:03:56;14.00;67.10
52295;DHT22;38243;53.212;6.574;2023-04-03T06:06:24;14.00;67.10
52295;DHT22;38243;53.212;6.574;2023-04-03T06:08:50;14.00;66.90
52295;DHT22;38243;53.212;6.574;2023-04-03T06:11:16;14.00;66.80
52295;DHT22;38243;53.212;6.574;2023-04-03T06:13:42;14.00;66.70
52295;DHT22;38243;53.212;6.574;2023-04-03T06:16:11;14.10;66.60
52295;DHT22;38243;53.212;6.574;2023-04-03T06:18:40;14.10;66.60
52295;DHT22;38243;53.212;6.574;2023-04-03T06:21:06;14.10;66.50
52295;DHT22;38243;53.212;6.574;2023-04-03T06:23:33;14.20;66.30
52295;DHT22;38243;53.212;6.574;2023-04-03T06:25:59;14.20;66.20
52295;DHT22;38243;53.212;6.574;2023-04-03T06:28:25;14.20;65.80
52295;DHT22;38243;53.212;6.574;2023-04-03T06:30:51;14.20;65.80
52295;DHT22;38243;53.212;6.574;2023-04-03T06:33:17;14.30;65.80
52295;DHT22;38243;53.212;6.574;2023-04-03T06:35:42;14.30;65.50
52295;DHT22;38243;53.212;6.574;2023-04-03T06:38:08;14.30;65.50
52295;DHT22;38243;53.212;6.574;2023-04-03T06:40:35;14.40;65.30
52295;DHT22;38243;53.212;6.574;2023-04-03T06:43:01;14.40;65.20
52295;DHT22;38243;53.212;6.574;2023-04-03T06:45:27;14.50;65.00
52295;DHT22;38243;53.212;6.574;2023-04-03T06:47:53;14.50;64.70
52295;DHT22;38243;53.212;6.574;2023-04-03T06:50:19;14.60;64.60
52295;DHT22;38243;53.212;6.574;2023-04-03T06:52:45;14.70;64.80
52295;DHT22;38243;53.212;6.574;2023-04-03T06:55:11;14.70;64.40
52295;DHT22;38243;53.212;6.574;2023-04-03T06:57:37;14.80;64.10
52295;DHT22;38243;53.212;6.574;2023-04-03T07:00:05;14.80;63.60
52295;DHT22;38243;53.212;6.574;2023-04-03T07:02:31;14.90;63.30
52295;DHT22;38243;53.212;6.574;2023-04-03T07:04:57;14.20;62.80
52295;DHT22;38243;53.212;6.574;2023-04-03T07:07:22;15.00;62.90
52295;DHT22;38243;53.212;6.574;2023-04-03T07:09:48;15.00;63.00
52295;DHT22;38243;53.212;6.574;2023-04-03T07:12:14;15.10;62.90
52295;DHT22;38243;53.212;6.574;2023-04-03T07:14:41;15.20;62.90
52295;DHT22;38243;53.212;6.574;2023-04-03T07:17:07;15.20;62.70
52295;DHT22;38243;53.212;6.574;2023-04-03T07:19:32;15.20;62.20
52295;DHT22;38243;53.212;6.574;2023-04-03T07:21:58;15.20;61.70
52295;DHT22;38243;53.212;6.574;2023-04-03T07:24:24;15.30;61.90
52295;DHT22;38243;53.212;6.574;2023-04-03T07:26:51;15.30;61.60
52295;DHT22;38243;53.212;6.574;2023-04-03T07:29:16;15.40;61.90
52295;DHT22;38243;53.212;6.574;2023-04-03T07:31:42;15.40;61.40
52295;DHT22;38243;53.212;6.574;2023-04-03T07:34:08;15.40;61.70
52295;DHT22;38243;53.212;6.574;2023-04-03T07:36:34;15.50;61.10
52295;DHT22;38243;53.212;6.574;2023-04-03T07:39:01;15.50;61.40
52295;DHT22;38243;53.212;6.574;2023-04-03T07:41:27;15.60;61.30
52295;DHT22;38243;53.212;6.574;2023-04-03T07:43:54;15.60;61.70
52295;DHT22;38243;53.212;6.574;2023-04-03T07:46:22;15.60;61.00
52295;DHT22;38243;53.212;6.574;2023-04-03T07:48:47;15.70;61.10
52295;DHT22;38243;53.212;6.574;2023-04-03T07:51:13;15.70;60.80
52295;DHT22;38243;53.212;6.574;2023-04-03T07:53:40;15.80;61.10
52295;DHT22;38243;53.212;6.574;2023-04-03T07:56:07;15.80;61.20
52295;DHT22;38243;53.212;6.574;2023-04-03T07:58:32;15.80;60.90
52295;DHT22;38243;53.212;6.574;2023-04-03T08:00:59;15.90;61.10
52295;DHT22;38243;53.212;6.574;2023-04-03T08:03:25;15.90;61.00
52295;DHT22;38243;53.212;6.574;2023-04-03T08:05:50;16.00;60.90
52295;DHT22;38243;53.212;6.574;2023-04-03T08:08:19;16.00;60.80
52295;DHT22;38243;53.212;6.574;2023-04-03T08:10:54;16.10;60.90
52295;DHT22;38243;53.212;6.574;2023-04-03T08:13:23;16.10;60.60
52295;DHT22;38243;53.212;6.574;2023-04-03T08:15:49;16.20;60.70
52295;DHT22;38243;53.212;6.574;2023-04-03T08:18:15;16.20;60.60
52295;DHT22;38243;53.212;6.574;2023-04-03T08:20:41;16.30;60.70
52295;DHT22;38243;53.212;6.574;2023-04-03T08:23:08;16.30;60.60
52295;DHT22;38243;53.212;6.574;2023-04-03T08:25:37;16.40;60.50
52295;DHT22;38243;53.212;6.574;2023-04-03T08:28:03;16.40;60.20
52295;DHT22;38243;53.212;6.574;2023-04-03T08:30:29;16.40;60.10
52295;DHT22;38243;53.212;6.574;2023-04-03T08:32:55;16.40;60.00
52295;DHT22;38243;53.212;6.574;2023-04-03T08:35:21;16.50;59.90
52295;DHT22;38243;53.212;6.574;2023-04-03T08:37:47;16.50;59.80
52295;DHT22;38243;53.212;6.574;2023-04-03T08:40:16;16.50;59.70
52295;DHT22;38243;53.212;6.574;2023-04-03T08:45:42;16.50;59.40
52295;DHT22;38243;53.212;6.574;2023-04-03T08:48:20;16.50;59.00
52295;DHT22;38243;53.212;6.574;2023-04-03T08:50:53;16.60;58.70
52295;DHT22;38243;53.212;6.574;2023-04-03T08:53:28;16.50;58.90
52295;DHT22;38243;53.212;6.574;2023-04-03T08:55:56;16.60;58.90
52295;DHT22;38243;53.212;6.574;2023-04-03T08:58:28;16.60;58.50
52295;DHT22;38243;53.212;6.574;2023-04-03T09:03:32;16.60;58.30
52295;DHT22;38243;53.212;6.574;2023-04-03T09:06:16;16.60;58.30
52295;DHT22;38243;53.212;6.574;2023-04-03T09:14:30;16.70;58.70
52295;DHT22;38243;53.212;6.574;2023-04-03T09:17:46;16.70;58.60
52295;DHT22;38243;53.212;6.574;2023-04-03T09:22:28;16.70;58.40
52295;DHT22;38243;53.212;6.574;2023-04-03T09:25:03;16.80;58.50
52295;DHT22;38243;53.212;6.574;2023-04-03T09:27:31;16.80;58.30
52295;DHT22;38243;53.212;6.574;2023-04-03T09:29:57;16.80;58.20
52295;DHT22;38243;53.212;6.574;2023-04-03T09:32:34;16.80;57.90
52295;DHT22;38243;53.212;6.574;2023-04-03T09:35:26;16.80;57.60
52295;DHT22;38243;53.212;6.574;2023-04-03T09:38:00;16.80;57.50
52295;DHT22;38243;53.212;6.574;2023-04-03T09:42:54;16.80;57.70
52295;DHT22;38243;53.212;6.574;2023-04-03T09:45:30;16.80;57.50
52295;DHT22;38243;53.212;6.574;2023-04-03T09:53:43;17.00;58.10
52295;DHT22;38243;53.212;6.574;2023-04-03T09:58:44;17.00;58.30
52295;DHT22;38243;53.212;6.574;2023-04-03T10:01:32;17.10;58.50
52295;DHT22;38243;53.212;6.574;2023-04-03T10:04:11;17.10;58.30
52295;DHT22;38243;53.212;6.574;2023-04-03T10:06:43;17.10;57.90
52295;DHT22;38243;53.212;6.574;2023-04-03T10:09:27;17.10;57.90
52295;DHT22;38243;53.212;6.574;2023-04-03T10:12:04;17.20;58.20
52295;DHT22;38243;53.212;6.574;2023-04-03T10:14:32;17.20;58.20
52295;DHT22;38243;53.212;6.574;2023-04-03T10:20:06;17.20;57.70
52295;DHT22;38243;53.212;6.574;2023-04-03T10:22:41;17.20;58.00
52295;DHT22;38243;53.212;6.574;2023-04-03T10:30:28;17.30;57.80
52295;DHT22;38243;53.212;6.574;2023-04-03T10:41:49;17.40;57.70
52295;DHT22;38243;53.212;6.574;2023-04-03T10:44:47;17.40;57.70
52295;DHT22;38243;53.212;6.574;2023-04-03T10:55:59;17.40;57.80
52295;DHT22;38243;53.212;6.574;2023-04-03T10:58:34;17.40;57.60
52295;DHT22;38243;53.212;6.574;2023-04-03T11:01:08;17.50;57.60
52295;DHT22;38243;53.212;6.574;2023-04-03T11:03:40;17.40;57.60
52295;DHT22;38243;53.212;6.574;2023-04-03T11:06:09;17.40;57.50
52295;DHT22;38243;53.212;6.574;2023-04-03T11:09:00;17.40;57.40
52295;DHT22;38243;53.212;6.574;2023-04-03T11:11:34;17.40;57.40
52295;DHT22;38243;53.212;6.574;2023-04-03T11:17:38;17.50;57.40
52295;DHT22;38243;53.212;6.574;2023-04-03T11:23:12;17.50;57.10
52295;DHT22;38243;53.212;6.574;2023-04-03T11:25:42;17.50;56.90
52295;DHT22;38243;53.212;6.574;2023-04-03T11:28:14;17.50;56.80
52295;DHT22;38243;53.212;6.574;2023-04-03T11:30:57;17.50;56.90
52295;DHT22;38243;53.212;6.574;2023-04-03T11:36:32;17.50;56.80
52295;DHT22;38243;53.212;6.574;2023-04-03T11:39:17;17.50;56.60
52295;DHT22;38243;53.212;6.574;2023-04-03T11:41:45;17.50;56.50
52295;DHT22;38243;53.212;6.574;2023-04-03T11:44:37;17.60;56.10
52295;DHT22;38243;53.212;6.574;2023-04-03T11:47:08;17.50;55.80
52295;DHT22;38243;53.212;6.574;2023-04-03T11:50:03;17.60;56.00
52295;DHT22;38243;53.212;6.574;2023-04-03T12:16:20;17.70;56.10
52295;DHT22;38243;53.212;6.574;2023-04-03T12:21:20;17.70;55.80
52295;DHT22;38243;53.212;6.574;2023-04-03T12:26:47;17.70;55.50
52295;DHT22;38243;53.212;6.574;2023-04-03T12:40:19;17.80;54.30
52295;DHT22;38243;53.212;6.574;2023-04-03T12:45:50;17.90;54.50
52295;DHT22;38243;53.212;6.574;2023-04-03T12:48:21;17.90;54.30
52295;DHT22;38243;53.212;6.574;2023-04-03T12:50:49;17.90;54.50
52295;DHT22;38243;53.212;6.574;2023-04-03T12:53:22;17.90;54.40
52295;DHT22;38243;53.212;6.574;2023-04-03T12:55:54;17.90;54.30
52295;DHT22;38243;53.212;6.574;2023-04-03T12:58:23;17.90;54.10
52295;DHT22;38243;53.212;6.574;2023-04-03T13:01:09;17.90;54.40
52295;DHT22;38243;53.212;6.574;2023-04-03T13:03:39;18.00;54.00
52295;DHT22;38243;53.212;6.574;2023-04-03T13:06:06;17.90;53.90
52295;DHT22;38243;53.212;6.574;2023-04-03T13:08:32;18.00;53.30
52295;DHT22;38243;53.212;6.574;2023-04-03T13:11:02;17.90;53.50
52295;DHT22;38243;53.212;6.574;2023-04-03T13:13:28;18.00;53.80
52295;DHT22;38243;53.212;6.574;2023-04-03T13:15:55;18.00;53.50
52295;DHT22;38243;53.212;6.574;2023-04-03T13:20:48;18.00;52.70
52295;DHT22;38243;53.212;6.574;2023-04-03T13:23:17;18.00;53.00
52295;DHT22;38243;53.212;6.574;2023-04-03T13:25:46;18.00;53.30
52295;DHT22;38243;53.212;6.574;2023-04-03T13:28:15;18.00;53.30
52295;DHT22;38243;53.212;6.574;2023-04-03T13:33:31;18.00;53.40
52295;DHT22;38243;53.212;6.574;2023-04-03T13:36:19;18.00;53.40
52295;DHT22;38243;53.212;6.574;2023-04-03T13:38:45;18.00;53.00
52295;DHT22;38243;53.212;6.574;2023-04-03T13:41:33;18.00;53.00
52295;DHT22;38243;53.212;6.574;2023-04-03T13:44:25;18.00;53.30
52295;DHT22;38243;53.212;6.574;2023-04-03T13:46:54;18.00;53.50
52295;DHT22;38243;53.212;6.574;2023-04-03T13:49:31;18.00;53.40
52295;DHT22;38243;53.212;6.574;2023-04-03T13:52:00;18.00;53.20
52295;DHT22;38243;53.212;6.574;2023-04-03T13:56:59;18.00;53.50
52295;DHT22;38243;53.212;6.574;2023-04-03T13:59:31;18.00;53.30
52295;DHT22;38243;53.212;6.574;2023-04-03T14:04:55;18.00;53.20
52295;DHT22;38243;53.212;6.574;2023-04-03T14:07:22;18.00;53.10
52295;DHT22;38243;53.212;6.574;2023-04-03T14:09:50;18.00;53.40
52295;DHT22;38243;53.212;6.574;2023-04-03T14:12:26;18.00;53.50
52295;DHT22;38243;53.212;6.574;2023-04-03T14:14:53;18.00;53.40
52295;DHT22;38243;53.212;6.574;2023-04-03T14:17:22;18.00;53.60
52295;DHT22;38243;53.212;6.574;2023-04-03T14:19:49;18.00;53.70
52295;DHT22;38243;53.212;6.574;2023-04-03T14:22:30;18.00;53.40
52295;DHT22;38243;53.212;6.574;2023-04-03T14:24:57;18.00;53.50
52295;DHT22;38243;53.212;6.574;2023-04-03T14:27:26;18.00;53.60
52295;DHT22;38243;53.212;6.574;2023-04-03T14:29:54;18.00;53.70
52295;DHT22;38243;53.212;6.574;2023-04-03T14:32:21;18.00;53.50
52295;DHT22;38243;53.212;6.574;2023-04-03T14:34:48;18.00;53.70
52295;DHT22;38243;53.212;6.574;2023-04-03T14:37:18;18.00;53.50
52295;DHT22;38243;53.212;6.574;2023-04-03T14:39:44;18.00;53.80
52295;DHT22;38243;53.212;6.574;2023-04-03T14:42:19;18.00;53.80
52295;DHT22;38243;53.212;6.574;2023-04-03T14:44:45;18.00;54.10
52295;DHT22;38243;53.212;6.574;2023-04-03T14:47:13;18.10;53.90
52295;DHT22;38243;53.212;6.574;2023-04-03T14:49:39;18.00;53.70
52295;DHT22;38243;53.212;6.574;2023-04-03T14:52:05;18.00;53.60
52295;DHT22;38243;53.212;6.574;2023-04-03T14:54:31;18.00;53.30
52295;DHT22;38243;53.212;6.574;2023-04-03T14:56:59;18.00;53.50
52295;DHT22;38243;53.212;6.574;2023-04-03T14:59:31;18.10;53.60
52295;DHT22;38243;53.212;6.574;2023-04-03T15:01:57;18.00;53.20
52295;DHT22;38243;53.212;6.574;2023-04-03T15:04:23;18.10;53.60
52295;DHT22;38243;53.212;6.574;2023-04-03T15:06:51;18.00;53.50
52295;DHT22;38243;53.212;6.574;2023-04-03T15:09:26;18.10;53.50
52295;DHT22;38243;53.212;6.574;2023-04-03T15:11:53;18.00;53.30
52295;DHT22;38243;53.212;6.574;2023-04-03T15:14:20;18.00;53.10
52295;DHT22;38243;53.212;6.574;2023-04-03T15:16:45;18.00;53.40
52295;DHT22;38243;53.212;6.574;2023-04-03T15:19:12;18.00;53.20
52295;DHT22;38243;53.212;6.574;2023-04-03T15:21:38;18.00;52.90
52295;DHT22;38243;53.212;6.574;2023-04-03T15:24:04;18.00;53.10
52295;DHT22;38243;53.212;6.574;2023-04-03T15:26:30;18.00;53.20
52295;DHT22;38243;53.212;6.574;2023-04-03T15:28:57;18.00;52.80
52295;DHT22;38243;53.212;6.574;2023-04-03T15:31:22;18.00;53.00
52295;DHT22;38243;53.212;6.574;2023-04-03T15:33:48;18.00;52.80
52295;DHT22;38243;53.212;6.574;2023-04-03T15:36:14;18.00;53.00
52295;DHT22;38243;53.212;6.574;2023-04-03T15:38:39;18.00;52.90
52295;DHT22;38243;53.212;6.574;2023-04-03T15:41:05;18.00;52.80
52295;DHT22;38243;53.212;6.574;2023-04-03T15:43:31;18.00;52.80
52295;DHT22;38243;53.212;6.574;2023-04-03T15:45:59;18.00;52.70
52295;DHT22;38243;53.212;6.574;2023-04-03T15:48:26;17.90;52.80
52295;DHT22;38243;53.212;6.574;2023-04-03T15:50:53;18.00;52.80
52295;DHT22;38243;53.212;6.574;2023-04-03T15:53:21;18.00;52.70
52295;DHT22;38243;53.212;6.574;2023-04-03T15:55:47;18.00;52.80
52295;DHT22;38243;53.212;6.574;2023-04-03T15:58:13;18.00;52.80
52295;DHT22;38243;53.212;6.574;2023-04-03T16:00:39;18.00;52.70
52295;DHT22;38243;53.212;6.574;2023-04-03T16:03:09;18.00;52.80
52295;DHT22;38243;53.212;6.574;2023-04-03T16:05:37;18.00;52.80
52295;DHT22;38243;53.212;6.574;2023-04-03T16:08:04;17.90;52.70
52295;DHT22;38243;53.212;6.574;2023-04-03T16:10:31;17.90;52.50
52295;DHT22;38243;53.212;6.574;2023-04-03T16:12:56;17.90;52.20
52295;DHT22;38243;53.212;6.574;2023-04-03T16:15:23;17.90;52.20
52295;DHT22;38243;53.212;6.574;2023-04-03T16:17:50;17.90;52.30
52295;DHT22;38243;53.212;6.574;2023-04-03T16:20:16;17.90;52.40
52295;DHT22;38243;53.212;6.574;2023-04-03T16:22:42;17.90;52.50
52295;DHT22;38243;53.212;6.574;2023-04-03T16:25:09;17.90;52.40
52295;DHT22;38243;53.212;6.574;2023-04-03T16:27:35;17.90;52.50
52295;DHT22;38243;53.212;6.574;2023-04-03T16:30:00;17.90;52.30
52295;DHT22;38243;53.212;6.574;2023-04-03T16:32:29;18.00;52.30
52295;DHT22;38243;53.212;6.574;2023-04-03T16:34:55;17.90;52.50
52295;DHT22;38243;53.212;6.574;2023-04-03T16:37:21;17.80;52.50
52295;DHT22;38243;53.212;6.574;2023-04-03T16:39:47;17.80;52.50
52295;DHT22;38243;53.212;6.574;2023-04-03T16:42:13;17.80;52.60
52295;DHT22;38243;53.212;6.574;2023-04-03T16:44:39;17.80;52.60
52295;DHT22;38243;53.212;6.574;2023-04-03T16:47:06;17.80;52.80
52295;DHT22;38243;53.212;6.574;2023-04-03T16:49:33;17.80;52.90
52295;DHT22;38243;53.212;6.574;2023-04-03T16:52:00;17.80;52.90
52295;DHT22;38243;53.212;6.574;2023-04-03T16:54:27;17.80;52.90
52295;DHT22;38243;53.212;6.574;2023-04-03T16:56:53;17.80;53.00
52295;DHT22;38243;53.212;6.574;2023-04-03T16:59:19;17.80;53.10
52295;DHT22;38243;53.212;6.574;2023-04-03T17:01:44;17.80;53.10
52295;DHT22;38243;53.212;6.574;2023-04-03T17:04:10;17.80;53.20
52295;DHT22;38243;53.212;6.574;2023-04-03T17:06:36;17.80;53.30
52295;DHT22;38243;53.212;6.574;2023-04-03T17:09:02;17.80;53.40
52295;DHT22;38243;53.212;6.574;2023-04-03T17:11:29;17.80;53.40
52295;DHT22;38243;53.212;6.574;2023-04-03T17:13:55;17.80;53.50
52295;DHT22;38243;53.212;6.574;2023-04-03T17:16:22;17.80;53.50
52295;DHT22;38243;53.212;6.574;2023-04-03T17:18:48;17.80;53.50
52295;DHT22;38243;53.212;6.574;2023-04-03T17:21:15;17.80;53.60
52295;DHT22;38243;53.212;6.574;2023-04-03T17:23:43;17.80;53.70
52295;DHT22;38243;53.212;6.574;2023-04-03T17:26:10;17.80;53.70
52295;DHT22;38243;53.212;6.574;2023-04-03T17:28:35;17.80;53.70
52295;DHT22;38243;53.212;6.574;2023-04-03T17:31:02;17.80;53.80
52295;DHT22;38243;53.212;6.574;2023-04-03T17:33:28;17.80;53.80
52295;DHT22;38243;53.212;6.574;2023-04-03T17:35:59;17.80;53.90
52295;DHT22;38243;53.212;6.574;2023-04-03T17:38:27;17.80;54.00
52295;DHT22;38243;53.212;6.574;2023-04-03T17:41:01;17.80;54.00